METAR AND TAF INFORMATION
METAR FOR ZWWW
ADDS - METARS form results

(2123 UTC 26 March 2019)
Data provider http://aviationweather.gov/metar/data/
 
METAR text: ZWWW 262100Z 12002MPS 350V160 CAVOK 07/M00 Q1019 NOSIG
Conditions at: ZWWW (URUM-QI/DIWOPU , CN) observed 2100 UTC 26 March 2019
Temperature: 7.0°C (45°F)
Dewpoint: 0.0°C (32°F) [RH = 61%]
Pressure (altimeter): 30.09 inches Hg (1019.0 mb)
Winds: from the ESE (120 degrees) at 5 MPH (4 knots; 2.1 m/s)
Visibility: 6 or more miles (10+ km)
Ceiling: ceiling and visibility are OK
Clouds: unknown
Weather: no significant weather observed at this time

METAR text: ZWWW 262030Z 16004MPS CAVOK 08/M00 Q1019 NOSIG
Conditions at: ZWWW (URUM-QI/DIWOPU , CN) observed 2030 UTC 26 March 2019
Temperature: 8.0°C (46°F)
Dewpoint: 0.0°C (32°F) [RH = 57%]
Pressure (altimeter): 30.09 inches Hg (1019.0 mb)
Winds: from the SSE (160 degrees) at 9 MPH (8 knots; 4.1 m/s)
Visibility: 6 or more miles (10+ km)
Ceiling: ceiling and visibility are OK
Clouds: unknown
Weather: no significant weather observed at this time

Forecast for: ZWWW (URUM-QI/DIWOPU , CN)
Text: TAF ZWWW 261513Z 2618/2718 16004MPS CAVOK TX16/2709Z TN06/2623Z
Forecast period: 1800 UTC 26 March 2019 to 0300 UTC 27 March 2019
Forecast type: FROM: standard forecast or significant change
Winds: from the SSE (160 degrees) at 9 MPH (8 knots; 4.1 m/s)
Visibility: 6 or more miles 10+ km)
Ceiling: unknown
Clouds: missing
Weather: no significant weather forecast for this period
Text: BECMG 2703/2704 36004MPS
Forecast period: 0300 to 1300 UTC 27 March 2019
Forecast type: BECOMING: Conditions expected to become as follows by 0400 UTC 27 March 2019
Winds: from the N (360 degrees) at 9 MPH (8 knots; 4.1 m/s)
Visibility: 6 or more miles 10+ km)
Ceiling: unknown
Clouds: missing
Weather: no significant weather forecast for this period
Text: BECMG 2713/2714 18004MPS
Forecast period: 1300 to 1800 UTC 27 March 2019
Forecast type: BECOMING: Conditions expected to become as follows by 1400 UTC 27 March 2019
Winds: from the S (180 degrees) at 9 MPH (8 knots; 4.1 m/s)
Visibility: 6 or more miles 10+ km)
Ceiling: unknown
Clouds: missing
Weather: no significant weather forecast for this period

 AIRPORT MAP

 RUNWAY INFORMATION

 AIRPORT FREQUENCIES
Type ATIS Name ATIS Frequency 126.7 MHZ
Type GND Name GND Frequency 121.65 MHZ
Type TWR Name TWR Frequency 118.1 MHZ

 AIRPORT NEAR NAVIGATION AIDS
Type NDB Name Fukang Frequency 369 KHZ
Type VOR-DME Name Fukang Frequency 116300 KHZ
Type VOR-DME Name Urumqi Frequency 115700 KHZ



2018 Air Astana Virtual Airline